sensor_id;sensor_type;location;lat;lon;timestamp;P1;durP1;ratioP1;P2;durP2;ratioP2
56680;SDS011;42558;52.388;13.390;2023-07-13T00:02:25;11.78;;;5.70;;
56680;SDS011;42558;52.388;13.390;2023-07-13T00:04:56;9.88;;;5.51;;
56680;SDS011;42558;52.388;13.390;2023-07-13T00:07:26;12.54;;;5.89;;
56680;SDS011;42558;52.388;13.390;2023-07-13T00:09:56;12.73;;;5.13;;
56680;SDS011;42558;52.388;13.390;2023-07-13T00:12:31;7.98;;;4.75;;
56680;SDS011;42558;52.388;13.390;2023-07-13T00:15:11;10.64;;;5.70;;
56680;SDS011;42558;52.388;13.390;2023-07-13T00:17:45;9.69;;;6.08;;
56680;SDS011;42558;52.388;13.390;2023-07-13T00:20:16;10.07;;;5.89;;
56680;SDS011;42558;52.388;13.390;2023-07-13T00:22:46;11.02;;;4.94;;
56680;SDS011;42558;52.388;13.390;2023-07-13T00:25:17;11.97;;;6.08;;
56680;SDS011;42558;52.388;13.390;2023-07-13T00:27:48;11.21;;;5.70;;
56680;SDS011;42558;52.388;13.390;2023-07-13T00:30:18;11.97;;;5.70;;
56680;SDS011;42558;52.388;13.390;2023-07-13T00:32:48;11.40;;;5.89;;
56680;SDS011;42558;52.388;13.390;2023-07-13T00:35:27;9.88;;;6.65;;
56680;SDS011;42558;52.388;13.390;2023-07-13T00:38:00;11.97;;;6.27;;
56680;SDS011;42558;52.388;13.390;2023-07-13T00:40:30;13.87;;;6.08;;
56680;SDS011;42558;52.388;13.390;2023-07-13T00:43:00;9.50;;;5.89;;
56680;SDS011;42558;52.388;13.390;2023-07-13T00:48:00;14.44;;;6.08;;
56680;SDS011;42558;52.388;13.390;2023-07-13T00:50:31;10.45;;;6.08;;
56680;SDS011;42558;52.388;13.390;2023-07-13T00:53:01;12.54;;;6.46;;
56680;SDS011;42558;52.388;13.390;2023-07-13T00:55:32;8.93;;;5.89;;
56680;SDS011;42558;52.388;13.390;2023-07-13T00:58:03;9.31;;;5.89;;
56680;SDS011;42558;52.388;13.390;2023-07-13T01:00:36;10.64;;;5.70;;
56680;SDS011;42558;52.388;13.390;2023-07-13T01:03:08;10.83;;;5.32;;
56680;SDS011;42558;52.388;13.390;2023-07-13T01:05:38;11.59;;;6.08;;
56680;SDS011;42558;52.388;13.390;2023-07-13T01:08:07;12.54;;;5.70;;
56680;SDS011;42558;52.388;13.390;2023-07-13T01:10:38;11.59;;;5.89;;
56680;SDS011;42558;52.388;13.390;2023-07-13T01:13:08;9.69;;;6.08;;
56680;SDS011;42558;52.388;13.390;2023-07-13T01:18:27;11.59;;;6.08;;
56680;SDS011;42558;52.388;13.390;2023-07-13T01:20:57;10.64;;;5.13;;
56680;SDS011;42558;52.388;13.390;2023-07-13T01:23:30;8.36;;;5.32;;
56680;SDS011;42558;52.388;13.390;2023-07-13T01:26:01;10.83;;;6.46;;
56680;SDS011;42558;52.388;13.390;2023-07-13T01:28:31;9.69;;;5.70;;
56680;SDS011;42558;52.388;13.390;2023-07-13T01:31:07;9.88;;;6.27;;
56680;SDS011;42558;52.388;13.390;2023-07-13T01:33:40;8.74;;;5.70;;
56680;SDS011;42558;52.388;13.390;2023-07-13T01:36:11;11.21;;;6.27;;
56680;SDS011;42558;52.388;13.390;2023-07-13T01:38:41;10.64;;;6.08;;
56680;SDS011;42558;52.388;13.390;2023-07-13T01:41:13;12.35;;;6.46;;
56680;SDS011;42558;52.388;13.390;2023-07-13T01:43:43;11.78;;;5.70;;
56680;SDS011;42558;52.388;13.390;2023-07-13T01:46:13;11.40;;;6.08;;
56680;SDS011;42558;52.388;13.390;2023-07-13T01:48:52;12.54;;;6.84;;
56680;SDS011;42558;52.388;13.390;2023-07-13T01:51:22;11.59;;;6.84;;
56680;SDS011;42558;52.388;13.390;2023-07-13T01:53:52;10.26;;;6.27;;
56680;SDS011;42558;52.388;13.390;2023-07-13T01:56:22;9.88;;;6.65;;
56680;SDS011;42558;52.388;13.390;2023-07-13T01:58:52;9.31;;;6.27;;
56680;SDS011;42558;52.388;13.390;2023-07-13T02:01:22;9.50;;;6.27;;
56680;SDS011;42558;52.388;13.390;2023-07-13T02:03:52;9.69;;;6.27;;
56680;SDS011;42558;52.388;13.390;2023-07-13T02:06:22;11.59;;;6.27;;
56680;SDS011;42558;52.388;13.390;2023-07-13T02:08:52;10.45;;;5.89;;
56680;SDS011;42558;52.388;13.390;2023-07-13T02:11:22;10.45;;;5.51;;
56680;SDS011;42558;52.388;13.390;2023-07-13T02:13:52;9.69;;;6.08;;
56680;SDS011;42558;52.388;13.390;2023-07-13T02:16:22;8.93;;;6.46;;
56680;SDS011;42558;52.388;13.390;2023-07-13T02:18:52;9.31;;;5.70;;
56680;SDS011;42558;52.388;13.390;2023-07-13T02:21:23;10.26;;;5.89;;
56680;SDS011;42558;52.388;13.390;2023-07-13T02:23:53;9.50;;;6.08;;
56680;SDS011;42558;52.388;13.390;2023-07-13T02:26:21;13.11;;;6.84;;
56680;SDS011;42558;52.388;13.390;2023-07-13T02:28:50;11.21;;;6.65;;
56680;SDS011;42558;52.388;13.390;2023-07-13T02:31:18;9.50;;;6.08;;
56680;SDS011;42558;52.388;13.390;2023-07-13T02:33:47;9.69;;;5.89;;
56680;SDS011;42558;52.388;13.390;2023-07-13T02:36:17;10.07;;;6.27;;
56680;SDS011;42558;52.388;13.390;2023-07-13T02:38:50;11.40;;;6.27;;
56680;SDS011;42558;52.388;13.390;2023-07-13T02:41:19;11.40;;;6.08;;
56680;SDS011;42558;52.388;13.390;2023-07-13T02:43:48;12.35;;;7.22;;
56680;SDS011;42558;52.388;13.390;2023-07-13T02:46:18;11.97;;;6.65;;
56680;SDS011;42558;52.388;13.390;2023-07-13T02:48:47;13.11;;;7.79;;
56680;SDS011;42558;52.388;13.390;2023-07-13T02:51:17;10.07;;;6.84;;
56680;SDS011;42558;52.388;13.390;2023-07-13T02:53:45;10.64;;;6.84;;
56680;SDS011;42558;52.388;13.390;2023-07-13T02:56:14;10.26;;;6.27;;
56680;SDS011;42558;52.388;13.390;2023-07-13T02:58:46;14.82;;;6.84;;
56680;SDS011;42558;52.388;13.390;2023-07-13T03:01:16;9.31;;;6.46;;
56680;SDS011;42558;52.388;13.390;2023-07-13T03:03:51;9.12;;;6.08;;
56680;SDS011;42558;52.388;13.390;2023-07-13T03:06:22;11.40;;;6.65;;
56680;SDS011;42558;52.388;13.390;2023-07-13T03:08:50;13.68;;;7.03;;
56680;SDS011;42558;52.388;13.390;2023-07-13T03:11:19;11.78;;;6.65;;
56680;SDS011;42558;52.388;13.390;2023-07-13T03:13:47;19.95;;;6.65;;
56680;SDS011;42558;52.388;13.390;2023-07-13T03:16:17;13.68;;;7.22;;
56680;SDS011;42558;52.388;13.390;2023-07-13T03:18:47;12.92;;;7.60;;
56680;SDS011;42558;52.388;13.390;2023-07-13T03:21:15;13.68;;;8.17;;
56680;SDS011;42558;52.388;13.390;2023-07-13T03:23:43;13.68;;;7.60;;
56680;SDS011;42558;52.388;13.390;2023-07-13T03:26:17;13.30;;;7.98;;
56680;SDS011;42558;52.388;13.390;2023-07-13T03:28:49;10.45;;;7.41;;
56680;SDS011;42558;52.388;13.390;2023-07-13T03:31:21;11.02;;;6.84;;
56680;SDS011;42558;52.388;13.390;2023-07-13T03:33:55;15.39;;;7.60;;
56680;SDS011;42558;52.388;13.390;2023-07-13T03:36:28;16.34;;;6.84;;
56680;SDS011;42558;52.388;13.390;2023-07-13T03:38:59;10.45;;;7.22;;
56680;SDS011;42558;52.388;13.390;2023-07-13T03:41:29;11.21;;;7.98;;
56680;SDS011;42558;52.388;13.390;2023-07-13T03:44:00;12.92;;;7.98;;
56680;SDS011;42558;52.388;13.390;2023-07-13T03:46:28;14.06;;;7.22;;
56680;SDS011;42558;52.388;13.390;2023-07-13T03:48:59;12.54;;;7.22;;
56680;SDS011;42558;52.388;13.390;2023-07-13T03:51:28;11.02;;;7.60;;
56680;SDS011;42558;52.388;13.390;2023-07-13T03:53:58;10.64;;;7.22;;
56680;SDS011;42558;52.388;13.390;2023-07-13T03:56:27;12.92;;;7.98;;
56680;SDS011;42558;52.388;13.390;2023-07-13T03:58:57;12.35;;;7.03;;
56680;SDS011;42558;52.388;13.390;2023-07-13T04:01:27;15.20;;;8.55;;
56680;SDS011;42558;52.388;13.390;2023-07-13T04:03:57;14.25;;;7.98;;
56680;SDS011;42558;52.388;13.390;2023-07-13T04:06:32;11.59;;;7.22;;
56680;SDS011;42558;52.388;13.390;2023-07-13T04:09:03;12.16;;;7.22;;
56680;SDS011;42558;52.388;13.390;2023-07-13T04:11:33;12.54;;;7.98;;
56680;SDS011;42558;52.388;13.390;2023-07-13T04:14:02;15.01;;;8.55;;
56680;SDS011;42558;52.388;13.390;2023-07-13T04:16:30;12.54;;;7.60;;
56680;SDS011;42558;52.388;13.390;2023-07-13T04:19:00;12.16;;;7.98;;
56680;SDS011;42558;52.388;13.390;2023-07-13T04:21:31;12.73;;;7.98;;
56680;SDS011;42558;52.388;13.390;2023-07-13T04:24:01;12.16;;;8.17;;
56680;SDS011;42558;52.388;13.390;2023-07-13T04:26:29;12.73;;;8.17;;
56680;SDS011;42558;52.388;13.390;2023-07-13T04:28:59;15.20;;;7.79;;
56680;SDS011;42558;52.388;13.390;2023-07-13T04:31:30;13.68;;;7.60;;
56680;SDS011;42558;52.388;13.390;2023-07-13T04:34:00;12.16;;;8.17;;
56680;SDS011;42558;52.388;13.390;2023-07-13T04:36:30;15.77;;;9.12;;
56680;SDS011;42558;52.388;13.390;2023-07-13T04:39:00;14.82;;;8.36;;
56680;SDS011;42558;52.388;13.390;2023-07-13T04:41:30;12.92;;;8.55;;
56680;SDS011;42558;52.388;13.390;2023-07-13T04:44:00;11.21;;;7.60;;
56680;SDS011;42558;52.388;13.390;2023-07-13T04:46:31;16.15;;;9.50;;
56680;SDS011;42558;52.388;13.390;2023-07-13T04:49:03;11.78;;;9.31;;
56680;SDS011;42558;52.388;13.390;2023-07-13T04:51:33;14.82;;;8.36;;
56680;SDS011;42558;52.388;13.390;2023-07-13T04:54:01;11.78;;;7.79;;
56680;SDS011;42558;52.388;13.390;2023-07-13T04:56:30;15.01;;;8.93;;
56680;SDS011;42558;52.388;13.390;2023-07-13T04:59:00;12.16;;;7.79;;
56680;SDS011;42558;52.388;13.390;2023-07-13T05:01:30;10.83;;;7.60;;
56680;SDS011;42558;52.388;13.390;2023-07-13T05:04:00;14.82;;;7.98;;
56680;SDS011;42558;52.388;13.390;2023-07-13T05:06:30;15.20;;;8.93;;
56680;SDS011;42558;52.388;13.390;2023-07-13T05:09:00;13.11;;;7.60;;
56680;SDS011;42558;52.388;13.390;2023-07-13T05:11:30;10.45;;;8.17;;
56680;SDS011;42558;52.388;13.390;2023-07-13T05:14:00;12.54;;;8.74;;
56680;SDS011;42558;52.388;13.390;2023-07-13T05:16:30;12.35;;;8.55;;
56680;SDS011;42558;52.388;13.390;2023-07-13T05:19:01;13.68;;;9.12;;
56680;SDS011;42558;52.388;13.390;2023-07-13T05:21:31;15.39;;;9.31;;
56680;SDS011;42558;52.388;13.390;2023-07-13T05:24:01;10.45;;;7.41;;
56680;SDS011;42558;52.388;13.390;2023-07-13T05:26:45;12.92;;;8.36;;
56680;SDS011;42558;52.388;13.390;2023-07-13T05:29:15;14.82;;;7.79;;
56680;SDS011;42558;52.388;13.390;2023-07-13T05:31:44;10.64;;;7.22;;
56680;SDS011;42558;52.388;13.390;2023-07-13T05:34:14;11.02;;;7.22;;
56680;SDS011;42558;52.388;13.390;2023-07-13T05:36:44;15.58;;;7.60;;
56680;SDS011;42558;52.388;13.390;2023-07-13T05:39:14;10.83;;;6.65;;
56680;SDS011;42558;52.388;13.390;2023-07-13T05:41:44;11.59;;;6.84;;
56680;SDS011;42558;52.388;13.390;2023-07-13T05:44:14;13.68;;;6.08;;
56680;SDS011;42558;52.388;13.390;2023-07-13T05:46:43;13.68;;;6.46;;
56680;SDS011;42558;52.388;13.390;2023-07-13T05:49:13;11.97;;;5.89;;
56680;SDS011;42558;52.388;13.390;2023-07-13T05:51:43;13.30;;;6.84;;
56680;SDS011;42558;52.388;13.390;2023-07-13T05:54:13;10.45;;;5.89;;
56680;SDS011;42558;52.388;13.390;2023-07-13T05:56:42;10.26;;;5.70;;
56680;SDS011;42558;52.388;13.390;2023-07-13T05:59:12;11.97;;;5.32;;
56680;SDS011;42558;52.388;13.390;2023-07-13T06:01:42;10.45;;;4.56;;
56680;SDS011;42558;52.388;13.390;2023-07-13T06:04:13;10.07;;;4.56;;
56680;SDS011;42558;52.388;13.390;2023-07-13T06:06:42;8.93;;;4.75;;
56680;SDS011;42558;52.388;13.390;2023-07-13T06:09:12;8.74;;;4.75;;
56680;SDS011;42558;52.388;13.390;2023-07-13T06:11:42;11.02;;;5.32;;
56680;SDS011;42558;52.388;13.390;2023-07-13T06:14:12;10.64;;;5.51;;
56680;SDS011;42558;52.388;13.390;2023-07-13T06:16:42;8.55;;;4.94;;
56680;SDS011;42558;52.388;13.390;2023-07-13T06:19:13;12.54;;;4.37;;
56680;SDS011;42558;52.388;13.390;2023-07-13T06:21:43;11.97;;;4.94;;
56680;SDS011;42558;52.388;13.390;2023-07-13T06:24:13;10.26;;;4.56;;
56680;SDS011;42558;52.388;13.390;2023-07-13T06:26:43;11.78;;;4.94;;
56680;SDS011;42558;52.388;13.390;2023-07-13T06:29:12;8.55;;;4.94;;
56680;SDS011;42558;52.388;13.390;2023-07-13T06:31:43;6.84;;;4.18;;
56680;SDS011;42558;52.388;13.390;2023-07-13T06:34:13;9.50;;;4.56;;
56680;SDS011;42558;52.388;13.390;2023-07-13T06:36:40;11.02;;;4.18;;
56680;SDS011;42558;52.388;13.390;2023-07-13T06:39:10;9.31;;;5.13;;
56680;SDS011;42558;52.388;13.390;2023-07-13T06:41:37;7.98;;;4.18;;
56680;SDS011;42558;52.388;13.390;2023-07-13T06:44:07;9.88;;;4.56;;
56680;SDS011;42558;52.388;13.390;2023-07-13T06:46:37;9.31;;;4.37;;
56680;SDS011;42558;52.388;13.390;2023-07-13T06:49:08;7.98;;;4.37;;
56680;SDS011;42558;52.388;13.390;2023-07-13T06:51:38;8.55;;;4.18;;
56680;SDS011;42558;52.388;13.390;2023-07-13T06:54:07;7.60;;;3.99;;
56680;SDS011;42558;52.388;13.390;2023-07-13T06:56:35;9.31;;;3.80;;
56680;SDS011;42558;52.388;13.390;2023-07-13T06:59:03;9.31;;;4.37;;
56680;SDS011;42558;52.388;13.390;2023-07-13T07:01:32;9.69;;;3.61;;
56680;SDS011;42558;52.388;13.390;2023-07-13T07:04:00;9.31;;;4.18;;
56680;SDS011;42558;52.388;13.390;2023-07-13T07:06:29;7.60;;;3.42;;
56680;SDS011;42558;52.388;13.390;2023-07-13T07:08:57;9.50;;;3.42;;
56680;SDS011;42558;52.388;13.390;2023-07-13T07:11:26;9.50;;;3.61;;
56680;SDS011;42558;52.388;13.390;2023-07-13T07:13:54;9.69;;;3.61;;
56680;SDS011;42558;52.388;13.390;2023-07-13T07:16:24;9.12;;;3.42;;
56680;SDS011;42558;52.388;13.390;2023-07-13T07:18:54;10.26;;;3.99;;
56680;SDS011;42558;52.388;13.390;2023-07-13T07:21:22;8.93;;;3.80;;
56680;SDS011;42558;52.388;13.390;2023-07-13T07:23:52;9.31;;;3.42;;
56680;SDS011;42558;52.388;13.390;2023-07-13T07:26:22;7.98;;;3.61;;
56680;SDS011;42558;52.388;13.390;2023-07-13T07:28:55;7.22;;;3.80;;
56680;SDS011;42558;52.388;13.390;2023-07-13T07:31:25;8.17;;;3.23;;
56680;SDS011;42558;52.388;13.390;2023-07-13T07:33:55;6.65;;;3.80;;
56680;SDS011;42558;52.388;13.390;2023-07-13T07:36:25;6.84;;;3.61;;
56680;SDS011;42558;52.388;13.390;2023-07-13T07:38:55;6.65;;;3.61;;
56680;SDS011;42558;52.388;13.390;2023-07-13T07:41:22;7.22;;;3.23;;
56680;SDS011;42558;52.388;13.390;2023-07-13T07:43:55;9.50;;;3.80;;
56680;SDS011;42558;52.388;13.390;2023-07-13T07:46:22;7.03;;;3.42;;
56680;SDS011;42558;52.388;13.390;2023-07-13T07:48:52;8.55;;;3.23;;
56680;SDS011;42558;52.388;13.390;2023-07-13T07:51:22;7.22;;;3.23;;
56680;SDS011;42558;52.388;13.390;2023-07-13T07:53:52;6.65;;;3.42;;
56680;SDS011;42558;52.388;13.390;2023-07-13T07:56:22;7.22;;;3.23;;
56680;SDS011;42558;52.388;13.390;2023-07-13T07:58:52;8.74;;;3.61;;
56680;SDS011;42558;52.388;13.390;2023-07-13T08:01:22;7.98;;;3.42;;
56680;SDS011;42558;52.388;13.390;2023-07-13T08:03:52;9.50;;;3.23;;
56680;SDS011;42558;52.388;13.390;2023-07-13T08:06:23;7.41;;;3.61;;
56680;SDS011;42558;52.388;13.390;2023-07-13T08:08:56;7.22;;;3.23;;
56680;SDS011;42558;52.388;13.390;2023-07-13T08:11:23;8.74;;;3.23;;
56680;SDS011;42558;52.388;13.390;2023-07-13T08:13:54;7.98;;;3.42;;
56680;SDS011;42558;52.388;13.390;2023-07-13T08:16:26;9.88;;;3.42;;
56680;SDS011;42558;52.388;13.390;2023-07-13T08:18:55;6.84;;;3.42;;
56680;SDS011;42558;52.388;13.390;2023-07-13T08:21:25;6.46;;;3.23;;
56680;SDS011;42558;52.388;13.390;2023-07-13T08:23:55;9.31;;;3.23;;
56680;SDS011;42558;52.388;13.390;2023-07-13T08:26:25;7.60;;;3.23;;
56680;SDS011;42558;52.388;13.390;2023-07-13T08:28:55;8.55;;;3.42;;
56680;SDS011;42558;52.388;13.390;2023-07-13T08:31:25;9.31;;;3.42;;
56680;SDS011;42558;52.388;13.390;2023-07-13T08:33:55;10.26;;;3.61;;
56680;SDS011;42558;52.388;13.390;2023-07-13T08:36:26;8.17;;;3.61;;
56680;SDS011;42558;52.388;13.390;2023-07-13T08:38:56;7.60;;;3.80;;
56680;SDS011;42558;52.388;13.390;2023-07-13T08:41:26;10.45;;;4.18;;
56680;SDS011;42558;52.388;13.390;2023-07-13T08:43:59;10.83;;;3.99;;
56680;SDS011;42558;52.388;13.390;2023-07-13T08:46:37;8.36;;;3.61;;
56680;SDS011;42558;52.388;13.390;2023-07-13T08:49:18;9.12;;;3.99;;
56680;SDS011;42558;52.388;13.390;2023-07-13T08:51:59;7.98;;;3.99;;
56680;SDS011;42558;52.388;13.390;2023-07-13T08:54:45;7.98;;;3.23;;
56680;SDS011;42558;52.388;13.390;2023-07-13T08:57:32;10.45;;;3.80;;
56680;SDS011;42558;52.388;13.390;2023-07-13T09:00:01;7.60;;;3.99;;
56680;SDS011;42558;52.388;13.390;2023-07-13T09:02:46;6.65;;;3.23;;
56680;SDS011;42558;52.388;13.390;2023-07-13T09:05:29;6.84;;;3.04;;
56680;SDS011;42558;52.388;13.390;2023-07-13T09:17:14;9.50;;;3.99;;
56680;SDS011;42558;52.388;13.390;2023-07-13T09:19:54;8.93;;;3.61;;
56680;SDS011;42558;52.388;13.390;2023-07-13T09:22:34;9.31;;;3.99;;
56680;SDS011;42558;52.388;13.390;2023-07-13T09:25:21;6.84;;;3.42;;
56680;SDS011;42558;52.388;13.390;2023-07-13T09:31:19;7.41;;;3.80;;
56680;SDS011;42558;52.388;13.390;2023-07-13T09:33:58;9.31;;;3.99;;
56680;SDS011;42558;52.388;13.390;2023-07-13T09:36:32;8.93;;;3.99;;
56680;SDS011;42558;52.388;13.390;2023-07-13T09:44:33;8.17;;;4.37;;
56680;SDS011;42558;52.388;13.390;2023-07-13T09:47:28;10.83;;;4.75;;
56680;SDS011;42558;52.388;13.390;2023-07-13T09:50:03;8.55;;;4.75;;
56680;SDS011;42558;52.388;13.390;2023-07-13T09:52:47;9.50;;;4.75;;
56680;SDS011;42558;52.388;13.390;2023-07-13T09:58:12;9.88;;;4.75;;
56680;SDS011;42558;52.388;13.390;2023-07-13T10:00:57;10.64;;;4.37;;
56680;SDS011;42558;52.388;13.390;2023-07-13T10:03:34;10.07;;;4.37;;
56680;SDS011;42558;52.388;13.390;2023-07-13T10:06:17;9.88;;;3.80;;
56680;SDS011;42558;52.388;13.390;2023-07-13T10:08:50;8.55;;;4.56;;
56680;SDS011;42558;52.388;13.390;2023-07-13T10:11:23;8.36;;;4.37;;
56680;SDS011;42558;52.388;13.390;2023-07-13T10:14:09;11.02;;;5.70;;
56680;SDS011;42558;52.388;13.390;2023-07-13T10:16:45;11.21;;;5.70;;
56680;SDS011;42558;52.388;13.390;2023-07-13T10:19:24;8.74;;;4.75;;
56680;SDS011;42558;52.388;13.390;2023-07-13T10:22:02;13.11;;;6.08;;
56680;SDS011;42558;52.388;13.390;2023-07-13T10:24:44;12.16;;;5.70;;
56680;SDS011;42558;52.388;13.390;2023-07-13T10:27:20;11.40;;;6.08;;
56680;SDS011;42558;52.388;13.390;2023-07-13T10:30:24;10.26;;;5.70;;
56680;SDS011;42558;52.388;13.390;2023-07-13T10:33:11;10.07;;;5.13;;
56680;SDS011;42558;52.388;13.390;2023-07-13T10:35:43;10.07;;;5.32;;
56680;SDS011;42558;52.388;13.390;2023-07-13T10:38:21;8.55;;;5.51;;
56680;SDS011;42558;52.388;13.390;2023-07-13T10:40:59;8.36;;;5.51;;
56680;SDS011;42558;52.388;13.390;2023-07-13T10:43:36;8.74;;;5.13;;
56680;SDS011;42558;52.388;13.390;2023-07-13T10:46:14;13.49;;;6.08;;
56680;SDS011;42558;52.388;13.390;2023-07-13T10:48:49;11.59;;;5.70;;
56680;SDS011;42558;52.388;13.390;2023-07-13T10:51:23;9.69;;;5.32;;
56680;SDS011;42558;52.388;13.390;2023-07-13T10:56:46;10.64;;;5.32;;
56680;SDS011;42558;52.388;13.390;2023-07-13T10:59:24;10.45;;;5.51;;
56680;SDS011;42558;52.388;13.390;2023-07-13T11:02:43;11.40;;;5.89;;
56680;SDS011;42558;52.388;13.390;2023-07-13T11:05:30;9.88;;;4.94;;
56680;SDS011;42558;52.388;13.390;2023-07-13T11:08:36;11.40;;;5.32;;
56680;SDS011;42558;52.388;13.390;2023-07-13T11:25:02;9.31;;;5.13;;
56680;SDS011;42558;52.388;13.390;2023-07-13T11:27:52;7.98;;;4.18;;
56680;SDS011;42558;52.388;13.390;2023-07-13T11:30:42;10.07;;;4.18;;
56680;SDS011;42558;52.388;13.390;2023-07-13T11:33:22;10.07;;;4.94;;
56680;SDS011;42558;52.388;13.390;2023-07-13T11:38:38;10.45;;;4.75;;
56680;SDS011;42558;52.388;13.390;2023-07-13T11:41:19;9.12;;;4.56;;
56680;SDS011;42558;52.388;13.390;2023-07-13T11:44:07;9.50;;;5.13;;
56680;SDS011;42558;52.388;13.390;2023-07-13T11:46:52;10.45;;;4.37;;
56680;SDS011;42558;52.388;13.390;2023-07-13T11:49:27;8.36;;;4.37;;
56680;SDS011;42558;52.388;13.390;2023-07-13T11:52:01;8.93;;;4.56;;
56680;SDS011;42558;52.388;13.390;2023-07-13T11:54:33;9.12;;;4.94;;
56680;SDS011;42558;52.388;13.390;2023-07-13T11:57:30;9.31;;;4.94;;
56680;SDS011;42558;52.388;13.390;2023-07-13T12:00:13;11.78;;;5.89;;
56680;SDS011;42558;52.388;13.390;2023-07-13T12:02:53;16.15;;;5.70;;
56680;SDS011;42558;52.388;13.390;2023-07-13T12:05:24;10.07;;;4.75;;
56680;SDS011;42558;52.388;13.390;2023-07-13T12:07:55;7.22;;;4.18;;
56680;SDS011;42558;52.388;13.390;2023-07-13T12:10:27;9.50;;;4.94;;
56680;SDS011;42558;52.388;13.390;2023-07-13T12:13:04;8.17;;;4.56;;
56680;SDS011;42558;52.388;13.390;2023-07-13T12:15:39;8.74;;;4.18;;
56680;SDS011;42558;52.388;13.390;2023-07-13T12:18:17;7.98;;;4.37;;
56680;SDS011;42558;52.388;13.390;2023-07-13T12:20:50;8.55;;;3.61;;
56680;SDS011;42558;52.388;13.390;2023-07-13T12:23:33;8.55;;;3.61;;
56680;SDS011;42558;52.388;13.390;2023-07-13T12:26:06;7.60;;;3.99;;
56680;SDS011;42558;52.388;13.390;2023-07-13T12:28:48;8.74;;;3.80;;
56680;SDS011;42558;52.388;13.390;2023-07-13T12:31:31;11.40;;;4.18;;
56680;SDS011;42558;52.388;13.390;2023-07-13T12:34:10;10.83;;;4.18;;
56680;SDS011;42558;52.388;13.390;2023-07-13T12:36:48;7.60;;;4.18;;
56680;SDS011;42558;52.388;13.390;2023-07-13T12:39:32;9.12;;;3.80;;
56680;SDS011;42558;52.388;13.390;2023-07-13T12:45:05;8.74;;;4.56;;
56680;SDS011;42558;52.388;13.390;2023-07-13T12:47:44;9.12;;;4.37;;
56680;SDS011;42558;52.388;13.390;2023-07-13T12:50:27;9.50;;;3.80;;
56680;SDS011;42558;52.388;13.390;2023-07-13T12:53:03;10.83;;;4.56;;
56680;SDS011;42558;52.388;13.390;2023-07-13T12:55:48;8.17;;;3.80;;
56680;SDS011;42558;52.388;13.390;2023-07-13T12:58:41;8.74;;;3.61;;
56680;SDS011;42558;52.388;13.390;2023-07-13T13:01:14;9.88;;;3.80;;
56680;SDS011;42558;52.388;13.390;2023-07-13T13:03:48;8.36;;;3.61;;
56680;SDS011;42558;52.388;13.390;2023-07-13T13:06:26;10.83;;;3.99;;
56680;SDS011;42558;52.388;13.390;2023-07-13T13:08:59;12.16;;;3.80;;
56680;SDS011;42558;52.388;13.390;2023-07-13T13:11:31;10.64;;;3.42;;
56680;SDS011;42558;52.388;13.390;2023-07-13T13:14:01;7.03;;;3.42;;
56680;SDS011;42558;52.388;13.390;2023-07-13T13:16:34;8.17;;;3.42;;
56680;SDS011;42558;52.388;13.390;2023-07-13T13:19:27;7.41;;;3.61;;
56680;SDS011;42558;52.388;13.390;2023-07-13T13:21:56;8.55;;;3.99;;
56680;SDS011;42558;52.388;13.390;2023-07-13T13:24:27;7.60;;;3.23;;
56680;SDS011;42558;52.388;13.390;2023-07-13T13:26:56;7.22;;;3.23;;
56680;SDS011;42558;52.388;13.390;2023-07-13T13:29:25;8.36;;;3.42;;
56680;SDS011;42558;52.388;13.390;2023-07-13T13:31:54;8.93;;;3.80;;
56680;SDS011;42558;52.388;13.390;2023-07-13T13:34:25;8.17;;;3.80;;
56680;SDS011;42558;52.388;13.390;2023-07-13T13:36:54;13.30;;;3.80;;
56680;SDS011;42558;52.388;13.390;2023-07-13T13:39:34;8.93;;;3.23;;
56680;SDS011;42558;52.388;13.390;2023-07-13T13:42:09;8.17;;;3.23;;
56680;SDS011;42558;52.388;13.390;2023-07-13T13:44:38;8.93;;;3.61;;
56680;SDS011;42558;52.388;13.390;2023-07-13T13:47:30;8.55;;;3.61;;
56680;SDS011;42558;52.388;13.390;2023-07-13T13:50:14;8.93;;;3.99;;
56680;SDS011;42558;52.388;13.390;2023-07-13T13:52:46;9.31;;;3.23;;
56680;SDS011;42558;52.388;13.390;2023-07-13T13:55:18;9.31;;;3.42;;
56680;SDS011;42558;52.388;13.390;2023-07-13T13:57:49;10.07;;;3.04;;
56680;SDS011;42558;52.388;13.390;2023-07-13T14:00:20;8.93;;;3.23;;
56680;SDS011;42558;52.388;13.390;2023-07-13T14:02:50;6.65;;;2.47;;
56680;SDS011;42558;52.388;13.390;2023-07-13T14:05:23;6.46;;;3.04;;
56680;SDS011;42558;52.388;13.390;2023-07-13T14:07:55;9.12;;;3.23;;
56680;SDS011;42558;52.388;13.390;2023-07-13T14:10:26;9.69;;;3.42;;
56680;SDS011;42558;52.388;13.390;2023-07-13T14:12:57;10.26;;;3.23;;
56680;SDS011;42558;52.388;13.390;2023-07-13T14:15:28;7.41;;;3.42;;
56680;SDS011;42558;52.388;13.390;2023-07-13T14:17:57;8.55;;;2.85;;
56680;SDS011;42558;52.388;13.390;2023-07-13T14:20:26;9.12;;;3.99;;
56680;SDS011;42558;52.388;13.390;2023-07-13T14:22:54;7.98;;;3.23;;
56680;SDS011;42558;52.388;13.390;2023-07-13T14:25:23;6.84;;;3.04;;
56680;SDS011;42558;52.388;13.390;2023-07-13T14:27:57;8.93;;;3.61;;
56680;SDS011;42558;52.388;13.390;2023-07-13T14:30:27;9.31;;;3.42;;
56680;SDS011;42558;52.388;13.390;2023-07-13T14:32:57;6.65;;;3.23;;
56680;SDS011;42558;52.388;13.390;2023-07-13T14:35:27;10.83;;;3.61;;
56680;SDS011;42558;52.388;13.390;2023-07-13T14:37:56;7.03;;;3.23;;
56680;SDS011;42558;52.388;13.390;2023-07-13T14:40:30;7.22;;;2.85;;
56680;SDS011;42558;52.388;13.390;2023-07-13T14:43:00;6.65;;;2.85;;
56680;SDS011;42558;52.388;13.390;2023-07-13T14:45:30;6.46;;;2.66;;
56680;SDS011;42558;52.388;13.390;2023-07-13T14:48:01;8.55;;;3.04;;
56680;SDS011;42558;52.388;13.390;2023-07-13T14:50:32;7.03;;;3.04;;
56680;SDS011;42558;52.388;13.390;2023-07-13T14:53:02;8.17;;;3.04;;
56680;SDS011;42558;52.388;13.390;2023-07-13T14:55:32;8.93;;;2.85;;
56680;SDS011;42558;52.388;13.390;2023-07-13T14:58:02;9.31;;;3.04;;
56680;SDS011;42558;52.388;13.390;2023-07-13T15:00:32;9.50;;;2.85;;
56680;SDS011;42558;52.388;13.390;2023-07-13T15:03:03;10.64;;;3.23;;
56680;SDS011;42558;52.388;13.390;2023-07-13T15:05:34;7.22;;;2.85;;
56680;SDS011;42558;52.388;13.390;2023-07-13T15:08:04;6.84;;;2.47;;
56680;SDS011;42558;52.388;13.390;2023-07-13T15:10:34;6.84;;;2.66;;
56680;SDS011;42558;52.388;13.390;2023-07-13T15:13:15;6.46;;;2.66;;
56680;SDS011;42558;52.388;13.390;2023-07-13T15:15:50;10.07;;;2.47;;
56680;SDS011;42558;52.388;13.390;2023-07-13T15:18:23;8.17;;;1.90;;
56680;SDS011;42558;52.388;13.390;2023-07-13T15:20:54;11.59;;;2.28;;
56680;SDS011;42558;52.388;13.390;2023-07-13T15:23:24;7.60;;;2.66;;
56680;SDS011;42558;52.388;13.390;2023-07-13T15:25:55;6.08;;;2.47;;
56680;SDS011;42558;52.388;13.390;2023-07-13T15:28:22;5.89;;;2.09;;
56680;SDS011;42558;52.388;13.390;2023-07-13T15:30:52;11.02;;;2.85;;
56680;SDS011;42558;52.388;13.390;2023-07-13T15:33:26;6.84;;;2.09;;
56680;SDS011;42558;52.388;13.390;2023-07-13T15:35:58;10.26;;;3.04;;
56680;SDS011;42558;52.388;13.390;2023-07-13T15:38:29;8.17;;;2.47;;
56680;SDS011;42558;52.388;13.390;2023-07-13T15:41:00;6.27;;;2.47;;
56680;SDS011;42558;52.388;13.390;2023-07-13T15:47:55;7.03;;;2.85;;
56680;SDS011;42558;52.388;13.390;2023-07-13T15:50:25;6.65;;;2.66;;
56680;SDS011;42558;52.388;13.390;2023-07-13T15:52:58;7.79;;;2.47;;
56680;SDS011;42558;52.388;13.390;2023-07-13T15:55:37;7.41;;;2.09;;